Las Vegas, Nevada
Traffic Map
Current Weather Conditions
Las Vegas, Nevada
Scattered Clouds
Scattered Clouds
25°
Feels Like: 25°
Wind Chill: 25° Ceiling: Unl
Heat Index: 25° Visibility: 10mi
Dew Point: -4° Wind: 15mph
Humidity: 14% Direction: 210° (SSW)
Pressure: 29.8in Gusts: 0mph
Raw Report DataKLAS 220256Z 21013KT 10SM SCT250 25/M04 A2980 RMK AO2 SLP070 T02501044 53010
Traffic Incident Summary
Active as of:
Severity:
Category:
InformationThere was an issue retrieving the traffic information for this location. Please try a different location or try again shortly.
Advertisements
Track Severe Weather on mobile